createdAt,value
2022-08-26T09:34:42.245Z,30.4
2022-08-26T09:37:13.799Z,30.6
2022-08-26T09:39:45.941Z,30.6
2022-08-26T09:42:18.470Z,30.6
2022-08-26T09:44:51.540Z,30.6
2022-08-26T09:47:29.691Z,30.8
2022-08-26T09:50:10.038Z,30.8
2022-08-26T09:52:44.762Z,30.9
2022-08-26T09:55:17.538Z,30.9
2022-08-26T09:57:49.232Z,30.8
2022-08-26T10:00:23.186Z,30.9
2022-08-26T10:02:59.054Z,30.9
2022-08-26T10:05:30.536Z,31
2022-08-26T10:08:03.522Z,31
2022-08-26T10:10:36.746Z,30.8
2022-08-26T10:13:15.511Z,30.8
2022-08-26T10:15:51.514Z,30.8
2022-08-26T10:18:23.448Z,30.7
2022-08-26T10:20:57.084Z,30.8
2022-08-26T10:23:32.624Z,31
2022-08-26T10:26:05.214Z,30.9
2022-08-26T10:28:41.169Z,31.1
2022-08-26T10:31:20.183Z,31.1
2022-08-26T10:34:01.301Z,31.1
2022-08-26T10:37:16.841Z,31
2022-08-26T10:39:59.444Z,31
2022-08-26T10:42:30.687Z,31.2
2022-08-26T10:45:02.960Z,31.3
2022-08-26T10:47:35.561Z,31.2
2022-08-26T10:50:13.205Z,31.2
2022-08-26T10:52:45.761Z,31.3
2022-08-26T10:55:18.610Z,31.4
2022-08-26T10:57:50.852Z,31.3
2022-08-26T11:00:28.903Z,31.4
2022-08-26T11:03:03.656Z,31.3
2022-08-26T11:05:35.949Z,31.2
2022-08-26T11:08:11.078Z,31.3
2022-08-26T11:10:43.956Z,31.3
2022-08-26T11:13:17.548Z,31.3
2022-08-26T11:15:51.105Z,31.4
2022-08-26T11:18:26.551Z,31.5
2022-08-26T11:20:59.073Z,31.7
2022-08-26T11:23:31.547Z,31.6
2022-08-26T11:26:04.104Z,31.8
2022-08-26T11:28:44.930Z,31.8
2022-08-26T11:31:18.080Z,31.8
2022-08-26T11:33:51.883Z,31.8
2022-08-26T11:36:25.720Z,31.8
2022-08-26T11:38:58.845Z,31.8
2022-08-26T11:41:30.329Z,31.8
2022-08-26T11:44:03.399Z,31.8
2022-08-26T11:46:37.131Z,31.6
2022-08-26T11:49:10.474Z,31.7
2022-08-26T11:51:49.383Z,31.7
2022-08-26T11:54:36.471Z,31.8
2022-08-26T11:57:12.442Z,31.6
2022-08-26T11:59:43.279Z,31.7
2022-08-26T12:02:18.413Z,31.9
2022-08-26T12:04:51.428Z,31.9
2022-08-26T12:07:25.952Z,31.9
2022-08-26T12:09:58.052Z,31.8
2022-08-26T12:12:36.706Z,31.8
2022-08-26T12:15:07.787Z,31.9
2022-08-26T12:17:41.471Z,31.8
2022-08-26T12:20:15.052Z,31.9
2022-08-26T12:22:49.473Z,31.8
2022-08-26T12:25:21.991Z,31.7
2022-08-26T12:27:54.891Z,31.3
2022-08-26T12:30:27.537Z,31.1
2022-08-26T12:33:23.671Z,30.9
2022-08-26T12:35:58.007Z,31
2022-08-26T12:38:29.311Z,31.3
2022-08-26T12:41:02.285Z,31.5
2022-08-26T12:43:34.717Z,31.6
2022-08-26T12:46:10.473Z,31.6
2022-08-26T12:48:44.184Z,31.5
2022-08-26T12:51:16.983Z,31.8
2022-08-26T12:53:49.984Z,32.1
2022-08-26T12:56:22.885Z,32.4
2022-08-26T12:58:55.356Z,32.6
2022-08-26T13:01:29.686Z,32.8
2022-08-26T13:04:01.937Z,32.8
2022-08-26T13:06:34.299Z,32.9
2022-08-26T13:09:07.268Z,32.9
2022-08-26T13:11:39.877Z,32.5
2022-08-26T13:14:25.038Z,32.1
2022-08-26T13:16:56.142Z,31.8
2022-08-26T13:19:29.362Z,31.8
2022-08-26T13:22:01.835Z,31.8
2022-08-26T13:24:34.243Z,31.6
2022-08-26T13:27:07.348Z,31.3
2022-08-26T13:29:41.417Z,31.1
2022-08-26T13:32:14.007Z,30.9
2022-08-26T13:34:51.814Z,30.8
2022-08-26T13:37:35.975Z,30.7
2022-08-26T13:40:07.292Z,30.6
2022-08-26T13:42:50.559Z,30.6
2022-08-26T13:45:21.505Z,30.5
2022-08-26T13:47:53.570Z,30.5
2022-08-26T13:50:26.194Z,30.5
2022-08-26T13:52:59.331Z,30.5
2022-08-26T13:55:32.071Z,30.5
2022-08-26T13:58:05.201Z,30.5
2022-08-26T14:00:37.826Z,30.5
2022-08-26T14:03:14.273Z,30.4
2022-08-26T14:05:45.873Z,30.4
2022-08-26T14:08:18.419Z,30.4
2022-08-26T14:10:51.867Z,30.4
2022-08-26T14:13:24.137Z,30.4
2022-08-26T14:15:56.995Z,30.4
2022-08-26T14:18:29.405Z,30.4
2022-08-26T14:21:03.122Z,30.4
2022-08-26T14:23:35.577Z,30.3
2022-08-26T14:26:09.190Z,30.4
2022-08-26T14:29:00.659Z,30.3
2022-08-26T14:31:34.249Z,30.3
2022-08-26T14:34:07.047Z,30.3
2022-08-26T14:36:39.978Z,30.2
2022-08-26T14:39:13.194Z,30.2
2022-08-26T14:41:55.698Z,30.2
2022-08-26T14:44:26.517Z,30.2
2022-08-26T14:46:59.951Z,30.1
2022-08-26T14:49:32.624Z,29.9
2022-08-26T14:52:05.179Z,29.9
2022-08-26T14:54:38.367Z,29.9
2022-08-26T14:57:11.801Z,29.8
2022-08-26T14:59:51.255Z,29.7
2022-08-26T15:02:34.966Z,29.5
2022-08-26T15:05:06.649Z,29.5
2022-08-26T15:07:39.787Z,29.5
2022-08-26T15:10:12.790Z,29.5
2022-08-26T15:12:45.482Z,29.4
2022-08-26T15:15:16.647Z,29.3
2022-08-26T15:17:49.921Z,29.3
2022-08-26T15:20:22.415Z,29.2
2022-08-26T15:22:55.931Z,29.1
2022-08-26T15:25:37.277Z,29.1
2022-08-26T15:28:10.518Z,29
2022-08-26T15:30:43.399Z,29
2022-08-26T15:33:16.293Z,29
2022-08-26T15:35:49.280Z,29
2022-08-26T15:38:22.091Z,29
2022-08-26T15:40:55.337Z,28.9
2022-08-26T15:43:32.495Z,28.9
2022-08-26T15:46:06.027Z,28.8
2022-08-26T15:48:38.928Z,28.9
2022-08-26T15:51:11.949Z,28.9
2022-08-26T15:53:44.341Z,28.8
2022-08-26T15:56:17.141Z,28.8
2022-08-26T15:58:56.904Z,28.7
2022-08-26T16:01:30.595Z,28.7
2022-08-26T16:04:03.424Z,28.7
2022-08-26T16:06:36.309Z,28.7
2022-08-26T16:09:09.639Z,28.7
2022-08-26T16:11:42.145Z,28.6
2022-08-26T16:14:15.203Z,28.6
2022-08-26T16:16:47.942Z,28.6
2022-08-26T16:19:20.719Z,28.5
2022-08-26T16:21:53.519Z,28.5
2022-08-26T16:24:31.264Z,28.5
2022-08-26T16:27:02.422Z,28.5
2022-08-26T16:29:35.532Z,28.4
2022-08-26T16:32:08.213Z,28.4
2022-08-26T16:34:57.718Z,28.4
2022-08-26T16:37:28.519Z,28.3
2022-08-26T16:40:02.709Z,28.3
2022-08-26T16:42:34.739Z,28.3
2022-08-26T16:45:07.887Z,28.2
2022-08-26T16:47:40.403Z,28.2
2022-08-26T16:50:13.393Z,28.2
2022-08-26T16:52:55.954Z,28.2
2022-08-26T16:55:27.668Z,28.1
2022-08-26T16:57:59.313Z,28.1
2022-08-26T17:00:32.183Z,28.1
2022-08-26T17:03:05.141Z,28
2022-08-26T17:05:37.649Z,28.1
2022-08-26T17:08:11.454Z,28.1
2022-08-26T17:10:59.374Z,28
2022-08-26T17:13:36.639Z,27.9
2022-08-26T17:16:08.339Z,28
2022-08-26T17:18:40.679Z,28
2022-08-26T17:21:14.111Z,27.9
2022-08-26T17:23:46.593Z,27.9
2022-08-26T17:26:19.621Z,27.9
2022-08-26T17:28:52.713Z,27.7
2022-08-26T17:31:26.354Z,27.7
2022-08-26T17:33:59.025Z,27.6
2022-08-26T17:36:31.725Z,27.5
2022-08-26T17:39:04.483Z,27.5
2022-08-26T17:41:37.048Z,27.5
2022-08-26T17:44:09.919Z,27.4
2022-08-26T17:46:40.835Z,27.4
2022-08-26T17:49:13.314Z,27.3
2022-08-26T17:51:45.765Z,27.3
2022-08-26T17:54:18.011Z,27.3
2022-08-26T17:56:50.911Z,27.3
2022-08-26T17:59:31.368Z,27.2
2022-08-26T18:02:03.468Z,27.1
2022-08-26T18:04:35.724Z,27.1
2022-08-26T18:07:08.604Z,27.1
2022-08-26T18:09:41.471Z,27
2022-08-26T18:12:14.546Z,26.9
2022-08-26T18:14:47.209Z,26.6
2022-08-26T18:17:20.374Z,26.6
2022-08-26T18:19:52.734Z,26.7
2022-08-26T18:22:25.855Z,26.6
2022-08-26T18:25:00.150Z,26.6
2022-08-26T18:27:32.013Z,26.6
2022-08-26T18:30:04.956Z,26.6
2022-08-26T18:32:37.548Z,26.6
2022-08-26T18:35:09.829Z,26.6
2022-08-26T18:37:42.609Z,26.4
2022-08-26T18:40:15.643Z,26.2
2022-08-26T18:42:54.815Z,26.3
2022-08-26T18:45:26.225Z,26.3
2022-08-26T18:47:58.764Z,26.3
2022-08-26T18:50:31.351Z,26.2
2022-08-26T18:53:04.619Z,26.1
2022-08-26T18:55:37.146Z,26.1
2022-08-26T18:58:12.528Z,26
2022-08-26T19:00:44.430Z,26
2022-08-26T19:03:19.771Z,26
2022-08-26T19:05:51.677Z,26
2022-08-26T19:08:24.440Z,25.9
2022-08-26T19:10:57.424Z,25.9
2022-08-26T19:13:30.207Z,25.8
2022-08-26T19:16:03.554Z,25.7
2022-08-26T19:18:37.852Z,25.6
2022-08-26T19:21:10.630Z,25.5
2022-08-26T19:23:42.947Z,25.5
2022-08-26T19:26:15.527Z,25.5
2022-08-26T19:28:47.893Z,25.4
2022-08-26T19:31:20.857Z,25.5
2022-08-26T19:33:53.154Z,25.4
2022-08-26T19:36:25.953Z,25.3
2022-08-26T19:38:58.295Z,25.3
2022-08-26T19:41:38.790Z,25.3
2022-08-26T19:44:09.663Z,25.2
2022-08-26T19:46:42.405Z,25.1
2022-08-26T19:49:15.064Z,25.1
2022-08-26T19:51:48.789Z,24.9
2022-08-26T19:54:21.288Z,25
2022-08-26T19:56:53.830Z,24.9
2022-08-26T19:59:27.112Z,24.9
2022-08-26T20:02:08.605Z,24.8
2022-08-26T20:04:42.367Z,24.8
2022-08-26T20:07:19.712Z,24.7
2022-08-26T20:09:51.130Z,24.7
2022-08-26T20:12:23.742Z,24.7
2022-08-26T20:14:56.938Z,24.7
2022-08-26T20:17:29.468Z,24.6
2022-08-26T20:20:02.233Z,24.6
2022-08-26T20:22:34.945Z,24.6
2022-08-26T20:25:07.534Z,24.5
2022-08-26T20:27:40.373Z,24.6
2022-08-26T20:30:12.946Z,24.6
2022-08-26T20:32:46.389Z,24.5
2022-08-26T20:35:18.982Z,24.4
2022-08-26T20:37:51.907Z,24.4
2022-08-26T20:40:24.940Z,24.4
2022-08-26T20:42:58.150Z,24.4
2022-08-26T20:45:31.727Z,24.3
2022-08-26T20:48:04.756Z,24.3
2022-08-26T20:50:37.305Z,24.2
2022-08-26T20:53:10.143Z,24.3
2022-08-26T20:55:42.396Z,24.3
2022-08-26T20:58:15.474Z,24.3
2022-08-26T21:00:48.428Z,24.2
2022-08-26T21:03:21.230Z,24.1
2022-08-26T21:05:55.972Z,24.1
2022-08-26T21:08:29.057Z,24.1
2022-08-26T21:11:08.096Z,24
2022-08-26T21:14:17.845Z,23.9
2022-08-26T21:16:48.822Z,24
2022-08-26T21:19:21.218Z,24
2022-08-26T21:21:53.815Z,24
2022-08-26T21:24:26.603Z,24
2022-08-26T21:26:59.279Z,23.9
2022-08-26T21:29:31.981Z,23.9
2022-08-26T21:32:05.401Z,23.9
2022-08-26T21:34:39.987Z,23.9
2022-08-26T21:37:17.764Z,23.7
2022-08-26T21:39:49.268Z,23.7
2022-08-26T21:42:21.762Z,23.7
2022-08-26T21:44:54.709Z,23.6
2022-08-26T21:47:27.063Z,23.6
2022-08-26T21:49:59.639Z,23.6
2022-08-26T21:52:32.985Z,23.6
2022-08-26T21:55:12.199Z,23.6
2022-08-26T21:57:43.279Z,23.5
2022-08-26T22:00:16.615Z,23.5
2022-08-26T22:02:49.933Z,23.4
2022-08-26T22:05:23.345Z,23.4
2022-08-26T22:07:55.891Z,23.4
2022-08-26T22:10:28.579Z,23.4
2022-08-26T22:13:01.264Z,23.2
2022-08-26T22:15:34.267Z,23.3
2022-08-26T22:18:07.673Z,23.2
2022-08-26T22:20:40.692Z,23.1
2022-08-26T22:23:14.103Z,23.1
2022-08-26T22:25:47.051Z,23.1
2022-08-26T22:28:20.471Z,23.1
2022-08-26T22:30:53.094Z,23.1
2022-08-26T22:33:25.721Z,23.1
2022-08-26T22:35:59.047Z,23
2022-08-26T22:38:32.549Z,23
2022-08-26T22:41:08.980Z,22.9
2022-08-26T22:43:41.061Z,22.9
2022-08-26T22:46:14.219Z,22.9
2022-08-26T22:48:54.813Z,22.8
2022-08-26T22:51:26.336Z,22.8
2022-08-26T22:53:58.961Z,22.8
2022-08-26T22:56:32.319Z,22.8
2022-08-26T22:59:05.530Z,22.8
2022-08-26T23:01:38.583Z,22.7
2022-08-26T23:04:11.927Z,22.7
2022-08-26T23:06:48.792Z,22.7
2022-08-26T23:09:22.899Z,22.7
2022-08-26T23:11:55.052Z,22.7
2022-08-26T23:14:27.810Z,22.8
2022-08-26T23:17:01.582Z,22.7
2022-08-26T23:19:34.263Z,22.7
2022-08-26T23:22:07.241Z,22.7
2022-08-26T23:24:39.963Z,22.7
2022-08-26T23:27:13.442Z,22.7
2022-08-26T23:29:46.468Z,22.6
2022-08-26T23:32:19.362Z,22.6
2022-08-26T23:34:52.222Z,22.6
2022-08-26T23:37:27.702Z,22.6
2022-08-26T23:40:04.124Z,22.6
2022-08-26T23:42:36.585Z,22.5
2022-08-26T23:45:09.210Z,22.5
2022-08-26T23:47:41.798Z,22.6
2022-08-26T23:50:14.707Z,22.5
2022-08-26T23:52:47.851Z,22.5
2022-08-26T23:55:20.421Z,22.5
2022-08-26T23:57:53.373Z,22.5
